sensor_id;sensor_type;location;lat;lon;timestamp;pressure;altitude;pressure_sealevel;temperature;humidity
71151;BME280;59071;42.138;24.768;2023-02-19T00:03:57;99832.09;;;13.27;39.96
71151;BME280;59071;42.138;24.768;2023-02-19T00:06:23;99824.28;;;13.25;39.64
71151;BME280;59071;42.138;24.768;2023-02-19T00:08:49;99817.47;;;13.29;39.87
71151;BME280;59071;42.138;24.768;2023-02-19T00:11:15;99818.28;;;13.74;39.00
71151;BME280;59071;42.138;24.768;2023-02-19T00:13:42;99813.16;;;13.72;38.69
71151;BME280;59071;42.138;24.768;2023-02-19T00:16:09;99823.03;;;13.72;38.96
71151;BME280;59071;42.138;24.768;2023-02-19T00:18:35;99817.56;;;13.41;39.49
71151;BME280;59071;42.138;24.768;2023-02-19T00:21:00;99807.06;;;13.46;39.39
71151;BME280;59071;42.138;24.768;2023-02-19T00:23:26;99811.94;;;14.05;38.48
71151;BME280;59071;42.138;24.768;2023-02-19T00:25:52;99802.78;;;13.82;38.55
71151;BME280;59071;42.138;24.768;2023-02-19T00:28:17;99801.97;;;13.38;39.56
71151;BME280;59071;42.138;24.768;2023-02-19T00:30:43;99814.97;;;13.35;39.66
71151;BME280;59071;42.138;24.768;2023-02-19T00:33:08;99803.66;;;13.33;39.64
71151;BME280;59071;42.138;24.768;2023-02-19T00:35:34;99800.38;;;14.11;38.17
71151;BME280;59071;42.138;24.768;2023-02-19T00:37:59;99791.66;;;13.97;38.42
71151;BME280;59071;42.138;24.768;2023-02-19T00:40:25;99787.81;;;13.56;39.25
71151;BME280;59071;42.138;24.768;2023-02-19T00:42:50;99788.00;;;13.36;39.67
71151;BME280;59071;42.138;24.768;2023-02-19T00:45:15;99782.25;;;12.89;40.70
71151;BME280;59071;42.138;24.768;2023-02-19T00:47:41;99787.03;;;12.80;40.93
71151;BME280;59071;42.138;24.768;2023-02-19T00:50:06;99778.13;;;12.61;41.23
71151;BME280;59071;42.138;24.768;2023-02-19T00:52:31;99773.50;;;12.75;41.09
71151;BME280;59071;42.138;24.768;2023-02-19T00:54:57;99780.75;;;12.68;41.49
71151;BME280;59071;42.138;24.768;2023-02-19T00:57:22;99775.28;;;12.56;41.59
71151;BME280;59071;42.138;24.768;2023-02-19T00:59:47;99778.78;;;12.57;41.11
71151;BME280;59071;42.138;24.768;2023-02-19T01:02:13;99779.84;;;12.49;41.80
71151;BME280;59071;42.138;24.768;2023-02-19T01:04:38;99776.72;;;12.59;41.31
71151;BME280;59071;42.138;24.768;2023-02-19T01:07:03;99780.47;;;12.51;41.68
71151;BME280;59071;42.138;24.768;2023-02-19T01:09:28;99783.25;;;12.63;41.68
71151;BME280;59071;42.138;24.768;2023-02-19T01:11:54;99779.81;;;12.81;41.01
71151;BME280;59071;42.138;24.768;2023-02-19T01:14:19;99765.06;;;12.46;41.87
71151;BME280;59071;42.138;24.768;2023-02-19T01:16:44;99763.31;;;12.65;41.61
71151;BME280;59071;42.138;24.768;2023-02-19T01:19:09;99764.69;;;12.43;42.19
71151;BME280;59071;42.138;24.768;2023-02-19T01:21:35;99763.47;;;12.45;42.18
71151;BME280;59071;42.138;24.768;2023-02-19T01:24:00;99760.59;;;12.40;41.87
71151;BME280;59071;42.138;24.768;2023-02-19T01:26:27;99774.03;;;12.20;42.62
71151;BME280;59071;42.138;24.768;2023-02-19T01:28:53;99777.25;;;11.84;43.39
71151;BME280;59071;42.138;24.768;2023-02-19T01:31:20;99774.81;;;11.82;43.12
71151;BME280;59071;42.138;24.768;2023-02-19T01:33:46;99780.97;;;11.83;42.95
71151;BME280;59071;42.138;24.768;2023-02-19T01:36:12;99780.81;;;11.64;43.41
71151;BME280;59071;42.138;24.768;2023-02-19T01:38:37;99787.75;;;11.72;43.97
71151;BME280;59071;42.138;24.768;2023-02-19T01:41:04;99776.31;;;11.58;43.75
71151;BME280;59071;42.138;24.768;2023-02-19T01:43:33;99759.56;;;11.44;44.38
71151;BME280;59071;42.138;24.768;2023-02-19T01:45:59;99771.63;;;11.40;44.50
71151;BME280;59071;42.138;24.768;2023-02-19T01:48:26;99768.34;;;11.38;44.24
71151;BME280;59071;42.138;24.768;2023-02-19T01:51:02;99759.38;;;11.19;44.75
71151;BME280;59071;42.138;24.768;2023-02-19T01:53:31;99770.22;;;11.38;44.00
71151;BME280;59071;42.138;24.768;2023-02-19T01:55:58;99761.81;;;11.41;44.22
71151;BME280;59071;42.138;24.768;2023-02-19T01:58:25;99752.97;;;11.47;44.41
71151;BME280;59071;42.138;24.768;2023-02-19T02:00:53;99752.22;;;11.06;44.68
71151;BME280;59071;42.138;24.768;2023-02-19T02:03:18;99750.50;;;11.45;43.99
71151;BME280;59071;42.138;24.768;2023-02-19T02:08:12;99754.03;;;11.39;44.18
71151;BME280;59071;42.138;24.768;2023-02-19T02:10:57;99769.41;;;11.04;44.85
71151;BME280;59071;42.138;24.768;2023-02-19T02:13:22;99769.41;;;11.30;44.32
71151;BME280;59071;42.138;24.768;2023-02-19T02:15:57;99761.00;;;11.27;45.09
71151;BME280;59071;42.138;24.768;2023-02-19T02:18:29;99764.44;;;11.47;43.72
71151;BME280;59071;42.138;24.768;2023-02-19T02:21:10;99766.06;;;11.55;44.03
71151;BME280;59071;42.138;24.768;2023-02-19T02:31:08;99773.09;;;12.01;43.18
71151;BME280;59071;42.138;24.768;2023-02-19T02:33:45;99786.28;;;11.89;43.27
71151;BME280;59071;42.138;24.768;2023-02-19T02:36:14;99788.34;;;11.94;42.29
71151;BME280;59071;42.138;24.768;2023-02-19T02:38:42;99775.97;;;12.06;42.36
71151;BME280;59071;42.138;24.768;2023-02-19T02:41:08;99783.09;;;12.19;42.43
71151;BME280;59071;42.138;24.768;2023-02-19T02:43:33;99784.94;;;12.19;42.09
71151;BME280;59071;42.138;24.768;2023-02-19T02:45:59;99781.63;;;12.30;42.21
71151;BME280;59071;42.138;24.768;2023-02-19T02:56:07;99773.75;;;11.97;42.37
71151;BME280;59071;42.138;24.768;2023-02-19T02:58:34;99783.41;;;11.91;42.42
71151;BME280;59071;42.138;24.768;2023-02-19T03:01:01;99792.66;;;11.82;43.33
71151;BME280;59071;42.138;24.768;2023-02-19T03:03:47;99800.84;;;11.93;42.86
71151;BME280;59071;42.138;24.768;2023-02-19T03:06:15;99799.63;;;11.83;42.75
71151;BME280;59071;42.138;24.768;2023-02-19T03:08:45;99806.22;;;11.67;43.51
71151;BME280;59071;42.138;24.768;2023-02-19T03:11:12;99809.91;;;11.72;43.92
71151;BME280;59071;42.138;24.768;2023-02-19T03:14:01;99803.59;;;11.47;43.87
71151;BME280;59071;42.138;24.768;2023-02-19T03:16:47;99793.38;;;11.17;45.02
71151;BME280;59071;42.138;24.768;2023-02-19T03:19:33;99795.88;;;11.12;44.84
71151;BME280;59071;42.138;24.768;2023-02-19T03:22:05;99796.22;;;11.42;44.01
71151;BME280;59071;42.138;24.768;2023-02-19T03:24:34;99804.00;;;11.50;44.07
71151;BME280;59071;42.138;24.768;2023-02-19T03:27:19;99803.34;;;11.68;43.60
71151;BME280;59071;42.138;24.768;2023-02-19T03:29:46;99810.56;;;11.54;43.99
71151;BME280;59071;42.138;24.768;2023-02-19T03:32:17;99806.47;;;11.45;44.59
71151;BME280;59071;42.138;24.768;2023-02-19T03:34:45;99803.81;;;11.52;43.94
71151;BME280;59071;42.138;24.768;2023-02-19T03:37:14;99805.88;;;11.50;43.54
71151;BME280;59071;42.138;24.768;2023-02-19T03:39:40;99804.19;;;11.62;43.50
71151;BME280;59071;42.138;24.768;2023-02-19T03:42:30;99806.22;;;11.73;43.42
71151;BME280;59071;42.138;24.768;2023-02-19T03:47:23;99826.34;;;11.49;43.70
71151;BME280;59071;42.138;24.768;2023-02-19T03:58:06;99823.44;;;11.78;43.15
71151;BME280;59071;42.138;24.768;2023-02-19T04:00:50;99816.63;;;11.82;42.70
71151;BME280;59071;42.138;24.768;2023-02-19T04:03:26;99829.38;;;11.86;43.22
71151;BME280;59071;42.138;24.768;2023-02-19T04:05:56;99831.78;;;11.88;42.40
71151;BME280;59071;42.138;24.768;2023-02-19T04:08:23;99832.78;;;12.13;41.91
71151;BME280;59071;42.138;24.768;2023-02-19T04:10:50;99839.13;;;12.12;41.96
71151;BME280;59071;42.138;24.768;2023-02-19T04:13:27;99842.66;;;12.06;42.37
71151;BME280;59071;42.138;24.768;2023-02-19T04:15:54;99847.03;;;12.39;41.24
71151;BME280;59071;42.138;24.768;2023-02-19T04:18:22;99847.06;;;12.26;41.26
71151;BME280;59071;42.138;24.768;2023-02-19T04:20:49;99861.06;;;12.21;41.54
71151;BME280;59071;42.138;24.768;2023-02-19T04:23:15;99867.00;;;12.23;42.11
71151;BME280;59071;42.138;24.768;2023-02-19T04:25:43;99863.88;;;12.33;41.66
71151;BME280;59071;42.138;24.768;2023-02-19T04:28:09;99867.38;;;12.33;41.65
71151;BME280;59071;42.138;24.768;2023-02-19T04:30:37;99864.94;;;12.25;41.14
71151;BME280;59071;42.138;24.768;2023-02-19T04:33:02;99867.25;;;12.15;41.89
71151;BME280;59071;42.138;24.768;2023-02-19T04:35:27;99867.56;;;12.39;41.23
71151;BME280;59071;42.138;24.768;2023-02-19T04:37:53;99863.53;;;12.16;41.46
71151;BME280;59071;42.138;24.768;2023-02-19T04:40:18;99870.53;;;12.17;41.73
71151;BME280;59071;42.138;24.768;2023-02-19T04:42:43;99861.91;;;12.15;41.88
71151;BME280;59071;42.138;24.768;2023-02-19T04:45:08;99865.63;;;12.07;41.73
71151;BME280;59071;42.138;24.768;2023-02-19T04:47:34;99865.38;;;12.22;41.74
71151;BME280;59071;42.138;24.768;2023-02-19T04:49:59;99867.56;;;12.39;40.94
71151;BME280;59071;42.138;24.768;2023-02-19T04:52:24;99871.69;;;12.35;41.19
71151;BME280;59071;42.138;24.768;2023-02-19T04:54:49;99870.09;;;12.20;41.41
71151;BME280;59071;42.138;24.768;2023-02-19T04:57:15;99870.41;;;12.44;40.92
71151;BME280;59071;42.138;24.768;2023-02-19T04:59:40;99889.16;;;12.30;41.73
71151;BME280;59071;42.138;24.768;2023-02-19T05:02:05;99888.75;;;12.20;41.78
71151;BME280;59071;42.138;24.768;2023-02-19T05:04:31;99886.13;;;12.13;41.97
71151;BME280;59071;42.138;24.768;2023-02-19T05:06:56;99891.31;;;12.02;42.42
71151;BME280;59071;42.138;24.768;2023-02-19T05:09:21;99890.25;;;12.03;42.25
71151;BME280;59071;42.138;24.768;2023-02-19T05:11:46;99884.94;;;11.96;42.45
71151;BME280;59071;42.138;24.768;2023-02-19T05:14:12;99883.22;;;12.22;42.07
71151;BME280;59071;42.138;24.768;2023-02-19T05:16:37;99882.22;;;12.16;41.98
71151;BME280;59071;42.138;24.768;2023-02-19T05:19:02;99883.91;;;12.04;41.95
71151;BME280;59071;42.138;24.768;2023-02-19T05:21:28;99887.78;;;12.08;42.38
71151;BME280;59071;42.138;24.768;2023-02-19T05:23:53;99876.50;;;12.06;41.49
71151;BME280;59071;42.138;24.768;2023-02-19T05:26:20;99882.84;;;12.11;41.38
71151;BME280;59071;42.138;24.768;2023-02-19T05:28:49;99887.72;;;12.28;41.09
71151;BME280;59071;42.138;24.768;2023-02-19T05:31:14;99883.91;;;12.56;40.77
71151;BME280;59071;42.138;24.768;2023-02-19T05:33:40;99888.38;;;12.62;40.58
71151;BME280;59071;42.138;24.768;2023-02-19T05:36:08;99899.19;;;12.80;40.47
71151;BME280;59071;42.138;24.768;2023-02-19T05:38:34;99905.53;;;12.86;39.85
71151;BME280;59071;42.138;24.768;2023-02-19T05:41:09;99914.03;;;13.08;39.95
71151;BME280;59071;42.138;24.768;2023-02-19T05:43:35;99918.13;;;13.10;39.33
71151;BME280;59071;42.138;24.768;2023-02-19T05:46:00;99917.88;;;13.44;39.06
71151;BME280;59071;42.138;24.768;2023-02-19T05:48:26;99929.81;;;13.09;39.61
71151;BME280;59071;42.138;24.768;2023-02-19T05:50:51;99918.50;;;13.14;39.33
71151;BME280;59071;42.138;24.768;2023-02-19T05:53:16;99921.72;;;13.55;38.62
71151;BME280;59071;42.138;24.768;2023-02-19T05:55:41;99926.97;;;13.43;38.95
71151;BME280;59071;42.138;24.768;2023-02-19T05:58:07;99931.97;;;13.83;37.82
71151;BME280;59071;42.138;24.768;2023-02-19T06:00:32;99929.41;;;14.13;37.07
71151;BME280;59071;42.138;24.768;2023-02-19T06:02:58;99938.84;;;14.34;37.17
71151;BME280;59071;42.138;24.768;2023-02-19T06:05:23;99936.97;;;14.16;36.97
71151;BME280;59071;42.138;24.768;2023-02-19T06:07:48;99946.56;;;14.24;37.33
71151;BME280;59071;42.138;24.768;2023-02-19T06:10:16;99961.03;;;14.41;36.72
71151;BME280;59071;42.138;24.768;2023-02-19T06:12:42;99969.28;;;15.07;36.11
71151;BME280;59071;42.138;24.768;2023-02-19T06:15:07;99957.47;;;15.80;34.27
71151;BME280;59071;42.138;24.768;2023-02-19T06:17:33;99971.56;;;15.22;34.94
71151;BME280;59071;42.138;24.768;2023-02-19T06:19:58;99975.38;;;15.56;35.14
71151;BME280;59071;42.138;24.768;2023-02-19T06:22:24;99976.00;;;16.29;34.75
71151;BME280;59071;42.138;24.768;2023-02-19T06:24:49;99978.06;;;16.63;33.06
71151;BME280;59071;42.138;24.768;2023-02-19T06:27:14;99978.72;;;15.94;35.62
71151;BME280;59071;42.138;24.768;2023-02-19T06:29:40;99982.28;;;16.47;37.04
71151;BME280;59071;42.138;24.768;2023-02-19T06:32:05;99981.28;;;17.17;33.12
71151;BME280;59071;42.138;24.768;2023-02-19T06:34:31;99990.53;;;17.55;33.40
71151;BME280;59071;42.138;24.768;2023-02-19T06:36:56;99989.84;;;17.76;31.82
71151;BME280;59071;42.138;24.768;2023-02-19T06:39:22;99986.44;;;17.98;32.71
71151;BME280;59071;42.138;24.768;2023-02-19T06:41:47;99984.19;;;18.12;31.23
71151;BME280;59071;42.138;24.768;2023-02-19T06:44:12;99992.72;;;18.26;31.01
71151;BME280;59071;42.138;24.768;2023-02-19T06:46:38;99989.63;;;18.78;30.73
71151;BME280;59071;42.138;24.768;2023-02-19T06:49:03;99995.69;;;19.34;30.12
71151;BME280;59071;42.138;24.768;2023-02-19T06:51:29;99994.13;;;19.44;30.28
71151;BME280;59071;42.138;24.768;2023-02-19T06:53:56;99990.88;;;19.42;29.99
71151;BME280;59071;42.138;24.768;2023-02-19T06:56:32;99997.97;;;19.48;28.77
71151;BME280;59071;42.138;24.768;2023-02-19T06:58:59;100005.38;;;19.36;28.78
71151;BME280;59071;42.138;24.768;2023-02-19T07:01:25;99999.28;;;19.72;32.47
71151;BME280;59071;42.138;24.768;2023-02-19T07:03:50;100009.97;;;20.37;27.96
71151;BME280;59071;42.138;24.768;2023-02-19T07:06:16;100006.41;;;19.89;28.32
71151;BME280;59071;42.138;24.768;2023-02-19T07:08:42;100001.00;;;19.84;28.47
71151;BME280;59071;42.138;24.768;2023-02-19T07:11:07;100006.31;;;19.46;28.42
71151;BME280;59071;42.138;24.768;2023-02-19T07:13:32;100005.16;;;19.69;28.82
71151;BME280;59071;42.138;24.768;2023-02-19T07:15:59;100007.63;;;20.08;28.13
71151;BME280;59071;42.138;24.768;2023-02-19T07:18:24;100003.50;;;19.96;28.56
71151;BME280;59071;42.138;24.768;2023-02-19T07:20:50;100008.72;;;20.55;27.31
71151;BME280;59071;42.138;24.768;2023-02-19T07:23:15;100012.94;;;20.41;27.64
71151;BME280;59071;42.138;24.768;2023-02-19T07:25:40;100011.00;;;20.26;27.46
71151;BME280;59071;42.138;24.768;2023-02-19T07:28:06;100011.97;;;20.57;27.25
71151;BME280;59071;42.138;24.768;2023-02-19T07:30:31;100012.56;;;20.22;27.87
71151;BME280;59071;42.138;24.768;2023-02-19T07:32:57;100000.34;;;20.57;27.75
71151;BME280;59071;42.138;24.768;2023-02-19T07:35:22;100008.38;;;20.46;27.31
71151;BME280;59071;42.138;24.768;2023-02-19T07:37:47;99998.94;;;20.44;27.25
71151;BME280;59071;42.138;24.768;2023-02-19T07:40:13;99995.66;;;20.42;27.28
71151;BME280;59071;42.138;24.768;2023-02-19T07:42:38;99993.81;;;20.47;27.43
71151;BME280;59071;42.138;24.768;2023-02-19T07:45:03;99999.69;;;20.87;27.13
71151;BME280;59071;42.138;24.768;2023-02-19T07:47:29;100003.50;;;20.38;27.37
71151;BME280;59071;42.138;24.768;2023-02-19T07:49:54;100004.00;;;20.83;27.13
71151;BME280;59071;42.138;24.768;2023-02-19T07:52:19;99998.72;;;21.29;26.70
71151;BME280;59071;42.138;24.768;2023-02-19T07:54:44;99993.72;;;20.90;27.45
71151;BME280;59071;42.138;24.768;2023-02-19T07:57:10;100005.31;;;20.75;27.22
71151;BME280;59071;42.138;24.768;2023-02-19T07:59:35;99994.31;;;21.02;26.85
71151;BME280;59071;42.138;24.768;2023-02-19T08:02:00;99996.25;;;21.22;26.64
71151;BME280;59071;42.138;24.768;2023-02-19T08:04:46;99997.69;;;21.76;26.72
71151;BME280;59071;42.138;24.768;2023-02-19T08:07:11;100005.50;;;21.93;26.08
71151;BME280;59071;42.138;24.768;2023-02-19T08:09:36;100000.38;;;21.92;26.34
71151;BME280;59071;42.138;24.768;2023-02-19T08:12:02;99998.63;;;22.57;25.39
71151;BME280;59071;42.138;24.768;2023-02-19T08:14:46;100001.69;;;22.30;25.82
71151;BME280;59071;42.138;24.768;2023-02-19T08:17:11;100005.22;;;22.31;25.86
71151;BME280;59071;42.138;24.768;2023-02-19T08:19:36;99999.53;;;22.92;25.10
71151;BME280;59071;42.138;24.768;2023-02-19T08:22:02;99990.31;;;23.43;24.82
71151;BME280;59071;42.138;24.768;2023-02-19T08:24:27;99985.19;;;22.92;25.15
71151;BME280;59071;42.138;24.768;2023-02-19T08:26:52;99992.38;;;23.56;24.66
71151;BME280;59071;42.138;24.768;2023-02-19T08:29:18;99973.19;;;22.98;24.98
71151;BME280;59071;42.138;24.768;2023-02-19T08:31:43;99974.03;;;22.98;25.30
71151;BME280;59071;42.138;24.768;2023-02-19T08:34:08;99975.66;;;23.78;24.56
71151;BME280;59071;42.138;24.768;2023-02-19T08:36:33;99966.41;;;23.79;24.45
71151;BME280;59071;42.138;24.768;2023-02-19T08:38:59;99974.81;;;23.43;24.51
71151;BME280;59071;42.138;24.768;2023-02-19T08:41:24;99965.13;;;24.01;24.55
71151;BME280;59071;42.138;24.768;2023-02-19T08:43:49;99966.72;;;24.31;24.16
71151;BME280;59071;42.138;24.768;2023-02-19T08:46:15;99958.22;;;23.85;24.30
71151;BME280;59071;42.138;24.768;2023-02-19T08:48:40;99969.84;;;23.90;24.40
71151;BME280;59071;42.138;24.768;2023-02-19T08:51:07;99969.81;;;23.61;24.41
71151;BME280;59071;42.138;24.768;2023-02-19T08:53:33;99963.31;;;23.91;24.48
71151;BME280;59071;42.138;24.768;2023-02-19T08:56:03;99966.84;;;23.57;24.73
71151;BME280;59071;42.138;24.768;2023-02-19T08:58:28;99960.91;;;22.61;25.79
71151;BME280;59071;42.138;24.768;2023-02-19T09:00:53;99963.16;;;22.43;25.88
71151;BME280;59071;42.138;24.768;2023-02-19T09:03:19;99959.13;;;22.41;26.34
71151;BME280;59071;42.138;24.768;2023-02-19T09:05:44;99956.81;;;22.69;26.13
71151;BME280;59071;42.138;24.768;2023-02-19T09:08:10;99945.56;;;22.31;26.58
71151;BME280;59071;42.138;24.768;2023-02-19T09:10:36;99946.28;;;22.57;26.48
71151;BME280;59071;42.138;24.768;2023-02-19T09:13:02;99947.88;;;23.52;25.58
71151;BME280;59071;42.138;24.768;2023-02-19T09:15:27;99946.19;;;23.61;25.47
71151;BME280;59071;42.138;24.768;2023-02-19T09:17:53;99942.44;;;24.35;24.85
71151;BME280;59071;42.138;24.768;2023-02-19T09:20:19;99940.97;;;24.43;24.37
71151;BME280;59071;42.138;24.768;2023-02-19T09:22:44;99935.28;;;24.20;24.78
71151;BME280;59071;42.138;24.768;2023-02-19T09:25:10;99926.53;;;24.90;24.05
71151;BME280;59071;42.138;24.768;2023-02-19T09:27:35;99922.59;;;24.10;25.06
71151;BME280;59071;42.138;24.768;2023-02-19T09:30:00;99922.88;;;24.33;24.82
71151;BME280;59071;42.138;24.768;2023-02-19T09:32:28;99928.13;;;24.48;24.67
71151;BME280;59071;42.138;24.768;2023-02-19T09:34:53;99929.59;;;23.92;25.23
71151;BME280;59071;42.138;24.768;2023-02-19T09:37:19;99920.44;;;24.12;24.96
71151;BME280;59071;42.138;24.768;2023-02-19T09:39:44;99916.72;;;24.89;24.49
71151;BME280;59071;42.138;24.768;2023-02-19T09:42:16;99918.84;;;24.54;24.55
71151;BME280;59071;42.138;24.768;2023-02-19T09:44:44;99916.78;;;24.84;24.13
71151;BME280;59071;42.138;24.768;2023-02-19T09:47:14;99909.59;;;24.93;24.11
71151;BME280;59071;42.138;24.768;2023-02-19T09:49:41;99909.66;;;24.88;23.86
71151;BME280;59071;42.138;24.768;2023-02-19T09:54:39;99892.31;;;24.22;24.31
71151;BME280;59071;42.138;24.768;2023-02-19T09:57:05;99894.81;;;24.81;23.90
71151;BME280;59071;42.138;24.768;2023-02-19T09:59:39;99876.94;;;24.55;23.86
71151;BME280;59071;42.138;24.768;2023-02-19T10:02:12;99875.13;;;25.22;22.97
71151;BME280;59071;42.138;24.768;2023-02-19T10:04:42;99877.41;;;25.14;23.15
71151;BME280;59071;42.138;24.768;2023-02-19T10:07:14;99868.75;;;24.93;23.39
71151;BME280;59071;42.138;24.768;2023-02-19T10:09:40;99866.22;;;24.64;23.93
71151;BME280;59071;42.138;24.768;2023-02-19T10:12:18;99863.97;;;25.23;23.25
71151;BME280;59071;42.138;24.768;2023-02-19T10:14:50;99872.00;;;24.95;23.82
71151;BME280;59071;42.138;24.768;2023-02-19T10:17:20;99862.63;;;24.26;24.18
71151;BME280;59071;42.138;24.768;2023-02-19T10:19:46;99856.94;;;24.03;24.61
71151;BME280;59071;42.138;24.768;2023-02-19T10:22:11;99858.75;;;24.32;24.72
71151;BME280;59071;42.138;24.768;2023-02-19T10:24:37;99848.53;;;24.43;24.14
71151;BME280;59071;42.138;24.768;2023-02-19T10:27:09;99841.44;;;25.17;23.48
71151;BME280;59071;42.138;24.768;2023-02-19T10:29:35;99841.69;;;24.45;24.18
71151;BME280;59071;42.138;24.768;2023-02-19T10:32:14;99830.19;;;24.53;24.34
71151;BME280;59071;42.138;24.768;2023-02-19T10:34:42;99829.91;;;24.31;24.34
71151;BME280;59071;42.138;24.768;2023-02-19T10:37:09;99820.97;;;23.87;24.84
71151;BME280;59071;42.138;24.768;2023-02-19T10:42:12;99809.00;;;24.69;23.61
71151;BME280;59071;42.138;24.768;2023-02-19T10:44:40;99814.88;;;24.76;24.03
71151;BME280;59071;42.138;24.768;2023-02-19T10:47:07;99798.03;;;25.07;23.83
71151;BME280;59071;42.138;24.768;2023-02-19T10:49:38;99800.16;;;24.39;24.50
71151;BME280;59071;42.138;24.768;2023-02-19T10:54:41;99774.53;;;24.65;23.57
71151;BME280;59071;42.138;24.768;2023-02-19T10:59:48;99783.66;;;24.88;23.20
71151;BME280;59071;42.138;24.768;2023-02-19T11:02:20;99770.09;;;24.69;23.42
71151;BME280;59071;42.138;24.768;2023-02-19T11:07:29;99755.63;;;25.20;23.00
71151;BME280;59071;42.138;24.768;2023-02-19T11:09:55;99755.47;;;24.46;23.77
71151;BME280;59071;42.138;24.768;2023-02-19T11:12:27;99748.22;;;24.93;23.16
71151;BME280;59071;42.138;24.768;2023-02-19T11:14:54;99749.97;;;25.16;22.76
71151;BME280;59071;42.138;24.768;2023-02-19T11:17:21;99742.50;;;25.22;22.86
71151;BME280;59071;42.138;24.768;2023-02-19T11:19:46;99750.34;;;24.96;23.21
71151;BME280;59071;42.138;24.768;2023-02-19T11:24:47;99746.00;;;25.09;23.01
71151;BME280;59071;42.138;24.768;2023-02-19T11:27:16;99740.50;;;25.14;23.05
71151;BME280;59071;42.138;24.768;2023-02-19T11:29:42;99740.22;;;25.29;23.00
71151;BME280;59071;42.138;24.768;2023-02-19T11:34:42;99739.75;;;24.94;22.89
71151;BME280;59071;42.138;24.768;2023-02-19T11:37:11;99727.91;;;24.71;23.20
71151;BME280;59071;42.138;24.768;2023-02-19T11:39:38;99727.38;;;25.02;22.76
71151;BME280;59071;42.138;24.768;2023-02-19T11:47:21;99723.06;;;24.68;23.43
71151;BME280;59071;42.138;24.768;2023-02-19T11:55:02;99709.56;;;25.24;22.62
71151;BME280;59071;42.138;24.768;2023-02-19T11:57:38;99705.03;;;25.47;23.14
71151;BME280;59071;42.138;24.768;2023-02-19T12:05:22;99683.25;;;25.83;21.77
71151;BME280;59071;42.138;24.768;2023-02-19T12:10:42;99677.84;;;26.65;21.38
71151;BME280;59071;42.138;24.768;2023-02-19T12:13:24;99677.41;;;25.90;21.85
71151;BME280;59071;42.138;24.768;2023-02-19T12:16:27;99675.75;;;26.39;21.70
71151;BME280;59071;42.138;24.768;2023-02-19T12:21:19;99663.63;;;26.54;21.27
71151;BME280;59071;42.138;24.768;2023-02-19T12:39:21;99634.47;;;27.35;20.77
71151;BME280;59071;42.138;24.768;2023-02-19T12:44:27;99616.81;;;27.84;20.04
71151;BME280;59071;42.138;24.768;2023-02-19T12:46:58;99609.88;;;27.35;20.75
71151;BME280;59071;42.138;24.768;2023-02-19T12:51:51;99605.16;;;27.18;20.91
71151;BME280;59071;42.138;24.768;2023-02-19T12:54:34;99599.28;;;27.42;20.72
71151;BME280;59071;42.138;24.768;2023-02-19T12:57:01;99596.31;;;27.12;20.85
71151;BME280;59071;42.138;24.768;2023-02-19T13:02:16;99592.38;;;27.44;20.63
71151;BME280;59071;42.138;24.768;2023-02-19T13:04:48;99589.34;;;27.63;20.56
71151;BME280;59071;42.138;24.768;2023-02-19T13:07:19;99586.59;;;26.57;21.00
71151;BME280;59071;42.138;24.768;2023-02-19T13:12:33;99576.16;;;27.48;20.39
71151;BME280;59071;42.138;24.768;2023-02-19T13:15:08;99566.19;;;27.52;20.41
71151;BME280;59071;42.138;24.768;2023-02-19T13:17:45;99572.94;;;27.63;20.28
71151;BME280;59071;42.138;24.768;2023-02-19T13:25:41;99556.84;;;28.05;19.79
71151;BME280;59071;42.138;24.768;2023-02-19T13:28:12;99552.69;;;27.82;20.17
71151;BME280;59071;42.138;24.768;2023-02-19T13:30:55;99556.03;;;27.96;20.03
71151;BME280;59071;42.138;24.768;2023-02-19T13:33:32;99549.13;;;27.81;19.94
71151;BME280;59071;42.138;24.768;2023-02-19T13:38:30;99538.84;;;27.52;20.34
71151;BME280;59071;42.138;24.768;2023-02-19T13:40:56;99531.78;;;27.68;20.24
71151;BME280;59071;42.138;24.768;2023-02-19T13:45:48;99527.25;;;27.11;20.77
71151;BME280;59071;42.138;24.768;2023-02-19T13:48:28;99515.53;;;27.37;20.77
71151;BME280;59071;42.138;24.768;2023-02-19T13:58:52;99499.53;;;26.78;21.21
71151;BME280;59071;42.138;24.768;2023-02-19T14:01:18;99499.38;;;26.75;21.25
71151;BME280;59071;42.138;24.768;2023-02-19T14:06:12;99490.91;;;27.11;20.56
71151;BME280;59071;42.138;24.768;2023-02-19T14:11:16;99491.78;;;27.55;20.08
71151;BME280;59071;42.138;24.768;2023-02-19T14:18:58;99478.56;;;26.47;21.23
71151;BME280;59071;42.138;24.768;2023-02-19T14:21:25;99466.00;;;26.78;21.10
71151;BME280;59071;42.138;24.768;2023-02-19T14:23:58;99461.97;;;26.75;20.76
71151;BME280;59071;42.138;24.768;2023-02-19T14:26:24;99467.50;;;26.52;20.76
71151;BME280;59071;42.138;24.768;2023-02-19T14:28:50;99461.00;;;26.71;20.56
71151;BME280;59071;42.138;24.768;2023-02-19T14:31:18;99461.41;;;26.56;20.69
71151;BME280;59071;42.138;24.768;2023-02-19T14:33:49;99459.47;;;26.47;20.85
71151;BME280;59071;42.138;24.768;2023-02-19T14:41:25;99469.09;;;26.05;21.30
71151;BME280;59071;42.138;24.768;2023-02-19T14:43:52;99451.59;;;25.74;21.57
71151;BME280;59071;42.138;24.768;2023-02-19T14:46:22;99440.22;;;25.81;21.44
71151;BME280;59071;42.138;24.768;2023-02-19T14:48:49;99442.06;;;25.63;21.58
71151;BME280;59071;42.138;24.768;2023-02-19T14:53:49;99438.72;;;24.57;22.72
71151;BME280;59071;42.138;24.768;2023-02-19T14:56:24;99434.91;;;24.58;22.71
71151;BME280;59071;42.138;24.768;2023-02-19T14:59:08;99430.66;;;24.66;22.75
71151;BME280;59071;42.138;24.768;2023-02-19T15:01:44;99437.81;;;24.20;23.22
71151;BME280;59071;42.138;24.768;2023-02-19T15:04:24;99427.31;;;24.13;23.57
71151;BME280;59071;42.138;24.768;2023-02-19T15:06:51;99428.53;;;24.07;23.67